sensor_id;sensor_type;location;lat;lon;timestamp;pressure;altitude;pressure_sealevel;temperature;humidity
64698;BME280;51124;53.394;-6.294;2023-03-14T00:01:45;98626.06;;;18.57;12.21
64698;BME280;51124;53.394;-6.294;2023-03-14T00:04:13;98628.22;;;18.51;12.18
64698;BME280;51124;53.394;-6.294;2023-03-14T00:06:41;98633.96;;;18.73;12.21
64698;BME280;51124;53.394;-6.294;2023-03-14T00:09:09;98636.97;;;18.54;12.20
64698;BME280;51124;53.394;-6.294;2023-03-14T00:11:37;98648.48;;;17.85;12.45
64698;BME280;51124;53.394;-6.294;2023-03-14T00:14:05;98661.68;;;17.91;12.55
64698;BME280;51124;53.394;-6.294;2023-03-14T00:16:32;98665.19;;;17.91;12.42
64698;BME280;51124;53.394;-6.294;2023-03-14T00:19:01;98669.02;;;18.56;12.35
64698;BME280;51124;53.394;-6.294;2023-03-14T00:21:28;98674.98;;;16.47;12.37
64698;BME280;51124;53.394;-6.294;2023-03-14T00:23:56;98678.26;;;15.23;11.91
64698;BME280;51124;53.394;-6.294;2023-03-14T00:26:24;98681.20;;;16.14;11.54
64698;BME280;51124;53.394;-6.294;2023-03-14T00:28:53;98685.41;;;15.28;11.19
64698;BME280;51124;53.394;-6.294;2023-03-14T00:31:21;98689.27;;;16.12;10.78
64698;BME280;51124;53.394;-6.294;2023-03-14T00:33:51;98694.62;;;16.29;10.74
64698;BME280;51124;53.394;-6.294;2023-03-14T00:36:19;98697.89;;;15.50;10.57
64698;BME280;51124;53.394;-6.294;2023-03-14T00:38:48;98702.37;;;15.47;10.44
64698;BME280;51124;53.394;-6.294;2023-03-14T00:41:18;98708.24;;;15.63;10.38
64698;BME280;51124;53.394;-6.294;2023-03-14T00:43:45;98710.61;;;15.16;10.38
64698;BME280;51124;53.394;-6.294;2023-03-14T00:46:13;98716.61;;;15.68;10.21
64698;BME280;51124;53.394;-6.294;2023-03-14T00:48:41;98720.40;;;15.69;10.18
64698;BME280;51124;53.394;-6.294;2023-03-14T00:51:09;98726.43;;;16.06;10.11
64698;BME280;51124;53.394;-6.294;2023-03-14T00:53:38;98735.68;;;15.08;10.19
64698;BME280;51124;53.394;-6.294;2023-03-14T00:56:07;98739.50;;;15.20;10.16
64698;BME280;51124;53.394;-6.294;2023-03-14T00:58:35;98745.67;;;15.05;10.04
64698;BME280;51124;53.394;-6.294;2023-03-14T01:01:08;98746.92;;;15.41;9.85
64698;BME280;51124;53.394;-6.294;2023-03-14T01:03:36;98755.42;;;15.92;9.80
64698;BME280;51124;53.394;-6.294;2023-03-14T01:06:13;98763.85;;;15.29;9.87
64698;BME280;51124;53.394;-6.294;2023-03-14T01:08:30;98773.83;;;14.92;9.84
64698;BME280;51124;53.394;-6.294;2023-03-14T01:10:58;98779.14;;;15.23;9.79
64698;BME280;51124;53.394;-6.294;2023-03-14T01:13:25;98784.07;;;14.67;9.86
64698;BME280;51124;53.394;-6.294;2023-03-14T01:15:52;98789.72;;;15.05;9.89
64698;BME280;51124;53.394;-6.294;2023-03-14T01:18:20;98797.06;;;15.01;9.81
64698;BME280;51124;53.394;-6.294;2023-03-14T01:20:47;98797.50;;;14.89;9.80
64698;BME280;51124;53.394;-6.294;2023-03-14T01:23:14;98801.48;;;15.01;9.63
64698;BME280;51124;53.394;-6.294;2023-03-14T01:25:42;98812.66;;;14.68;9.94
64698;BME280;51124;53.394;-6.294;2023-03-14T01:28:10;98826.14;;;14.76;9.73
64698;BME280;51124;53.394;-6.294;2023-03-14T01:30:37;98836.72;;;15.17;9.73
64698;BME280;51124;53.394;-6.294;2023-03-14T01:33:05;98845.41;;;14.77;9.74
64698;BME280;51124;53.394;-6.294;2023-03-14T01:35:32;98852.13;;;15.33;9.62
64698;BME280;51124;53.394;-6.294;2023-03-14T01:37:59;98860.97;;;14.88;9.69
64698;BME280;51124;53.394;-6.294;2023-03-14T01:40:27;98874.12;;;14.90;9.58
64698;BME280;51124;53.394;-6.294;2023-03-14T01:42:58;98888.76;;;14.62;9.66
64698;BME280;51124;53.394;-6.294;2023-03-14T01:46:17;98898.40;;;14.94;9.53
64698;BME280;51124;53.394;-6.294;2023-03-14T01:47:54;98914.60;;;15.46;9.59
64698;BME280;51124;53.394;-6.294;2023-03-14T01:50:22;98922.12;;;15.58;9.62
64698;BME280;51124;53.394;-6.294;2023-03-14T01:52:52;98932.06;;;15.65;9.64
64698;BME280;51124;53.394;-6.294;2023-03-14T01:55:21;98937.45;;;15.29;9.54
64698;BME280;51124;53.394;-6.294;2023-03-14T01:57:52;98947.95;;;16.35;9.70
64698;BME280;51124;53.394;-6.294;2023-03-14T02:00:23;98953.48;;;15.58;9.68
64698;BME280;51124;53.394;-6.294;2023-03-14T02:02:55;98959.29;;;15.31;9.65
64698;BME280;51124;53.394;-6.294;2023-03-14T02:05:25;98969.42;;;14.77;9.83
64698;BME280;51124;53.394;-6.294;2023-03-14T02:07:55;98976.07;;;14.96;9.71
64698;BME280;51124;53.394;-6.294;2023-03-14T02:10:25;98982.59;;;16.63;9.63
64698;BME280;51124;53.394;-6.294;2023-03-14T02:12:55;98990.37;;;15.02;9.78
64698;BME280;51124;53.394;-6.294;2023-03-14T02:15:23;98997.18;;;14.62;9.84
64698;BME280;51124;53.394;-6.294;2023-03-14T02:17:51;99005.77;;;15.03;9.76
64698;BME280;51124;53.394;-6.294;2023-03-14T02:20:28;99004.25;;;15.13;9.59
64698;BME280;51124;53.394;-6.294;2023-03-14T02:22:48;99010.64;;;15.12;9.62
64698;BME280;51124;53.394;-6.294;2023-03-14T02:25:20;99018.78;;;14.33;9.69
64698;BME280;51124;53.394;-6.294;2023-03-14T02:27:50;99026.37;;;17.51;9.67
64698;BME280;51124;53.394;-6.294;2023-03-14T02:30:20;99035.54;;;17.92;10.25
64698;BME280;51124;53.394;-6.294;2023-03-14T02:32:50;99047.88;;;16.03;10.70
64698;BME280;51124;53.394;-6.294;2023-03-14T02:35:22;99049.69;;;15.45;10.64
64698;BME280;51124;53.394;-6.294;2023-03-14T02:37:55;99056.21;;;18.25;10.77
64698;BME280;51124;53.394;-6.294;2023-03-14T02:40:25;99064.98;;;18.24;11.35
64698;BME280;51124;53.394;-6.294;2023-03-14T02:42:52;99075.67;;;17.37;11.83
64698;BME280;51124;53.394;-6.294;2023-03-14T02:45:36;99066.22;;;17.48;11.81
64698;BME280;51124;53.394;-6.294;2023-03-14T02:47:57;99050.20;;;17.60;12.09
64698;BME280;51124;53.394;-6.294;2023-03-14T02:50:29;99036.49;;;17.28;12.03
64698;BME280;51124;53.394;-6.294;2023-03-14T02:52:58;99033.72;;;17.88;12.11
64698;BME280;51124;53.394;-6.294;2023-03-14T02:55:26;99051.56;;;17.43;12.22
64698;BME280;51124;53.394;-6.294;2023-03-14T02:57:54;99052.01;;;17.17;12.42
64698;BME280;51124;53.394;-6.294;2023-03-14T03:00:22;99040.13;;;16.83;12.44
64698;BME280;51124;53.394;-6.294;2023-03-14T03:02:51;99061.15;;;17.43;12.31
64698;BME280;51124;53.394;-6.294;2023-03-14T03:05:19;99096.21;;;17.38;12.40
64698;BME280;51124;53.394;-6.294;2023-03-14T03:07:47;99093.61;;;17.29;12.48
64698;BME280;51124;53.394;-6.294;2023-03-14T03:10:15;99105.39;;;16.86;12.69
64698;BME280;51124;53.394;-6.294;2023-03-14T03:12:43;99113.34;;;17.18;12.43
64698;BME280;51124;53.394;-6.294;2023-03-14T03:15:11;99122.66;;;16.84;12.52
64698;BME280;51124;53.394;-6.294;2023-03-14T03:17:39;99113.59;;;17.22;12.50
64698;BME280;51124;53.394;-6.294;2023-03-14T03:20:08;99136.36;;;16.80;12.49
64698;BME280;51124;53.394;-6.294;2023-03-14T03:22:36;99131.23;;;17.01;12.51
64698;BME280;51124;53.394;-6.294;2023-03-14T03:25:05;99133.74;;;16.83;12.60
64698;BME280;51124;53.394;-6.294;2023-03-14T03:27:34;99149.39;;;16.31;12.56
64698;BME280;51124;53.394;-6.294;2023-03-14T03:30:03;99171.67;;;14.81;12.18
64698;BME280;51124;53.394;-6.294;2023-03-14T03:32:31;99176.67;;;14.65;11.79
64698;BME280;51124;53.394;-6.294;2023-03-14T03:34:59;99172.09;;;15.04;11.13
64698;BME280;51124;53.394;-6.294;2023-03-14T03:37:26;99188.49;;;15.17;10.95
64698;BME280;51124;53.394;-6.294;2023-03-14T03:39:54;99221.42;;;14.44;11.24
64698;BME280;51124;53.394;-6.294;2023-03-14T03:42:21;99230.17;;;14.90;10.88
64698;BME280;51124;53.394;-6.294;2023-03-14T03:44:48;99238.67;;;15.00;10.71
64698;BME280;51124;53.394;-6.294;2023-03-14T03:47:16;99237.40;;;14.67;10.54
64698;BME280;51124;53.394;-6.294;2023-03-14T03:49:43;99227.01;;;14.85;10.44
64698;BME280;51124;53.394;-6.294;2023-03-14T03:52:11;99226.87;;;14.58;10.27
64698;BME280;51124;53.394;-6.294;2023-03-14T03:54:38;99232.64;;;14.64;10.17
64698;BME280;51124;53.394;-6.294;2023-03-14T03:57:05;99245.17;;;14.34;10.21
64698;BME280;51124;53.394;-6.294;2023-03-14T03:59:33;99262.21;;;14.62;10.15
64698;BME280;51124;53.394;-6.294;2023-03-14T04:02:00;99275.25;;;14.92;10.07
64698;BME280;51124;53.394;-6.294;2023-03-14T04:04:28;99270.41;;;14.96;10.15
64698;BME280;51124;53.394;-6.294;2023-03-14T04:06:55;99271.10;;;13.85;10.12
64698;BME280;51124;53.394;-6.294;2023-03-14T04:09:23;99288.66;;;13.74;10.13
64698;BME280;51124;53.394;-6.294;2023-03-14T04:11:50;99313.17;;;14.92;9.86
64698;BME280;51124;53.394;-6.294;2023-03-14T04:14:17;99321.88;;;14.03;9.88
64698;BME280;51124;53.394;-6.294;2023-03-14T04:16:45;99336.58;;;14.87;9.85
64698;BME280;51124;53.394;-6.294;2023-03-14T04:19:12;99344.02;;;14.50;9.83
64698;BME280;51124;53.394;-6.294;2023-03-14T04:21:39;99351.53;;;15.38;9.65
64698;BME280;51124;53.394;-6.294;2023-03-14T04:24:08;99346.05;;;14.08;9.81
64698;BME280;51124;53.394;-6.294;2023-03-14T04:26:35;99358.57;;;14.63;9.68
64698;BME280;51124;53.394;-6.294;2023-03-14T04:29:02;99366.66;;;15.03;9.69
64698;BME280;51124;53.394;-6.294;2023-03-14T04:31:30;99365.13;;;14.69;9.68
64698;BME280;51124;53.394;-6.294;2023-03-14T04:33:57;99381.48;;;14.22;9.58
64698;BME280;51124;53.394;-6.294;2023-03-14T04:36:24;99387.02;;;14.99;9.65
64698;BME280;51124;53.394;-6.294;2023-03-14T04:38:52;99390.96;;;13.98;9.76
64698;BME280;51124;53.394;-6.294;2023-03-14T04:41:19;99398.79;;;13.74;9.84
64698;BME280;51124;53.394;-6.294;2023-03-14T04:43:46;99402.71;;;14.23;9.65
64698;BME280;51124;53.394;-6.294;2023-03-14T04:46:13;99411.40;;;13.97;9.65
64698;BME280;51124;53.394;-6.294;2023-03-14T04:48:41;99425.74;;;13.37;9.87
64698;BME280;51124;53.394;-6.294;2023-03-14T04:51:09;99432.22;;;13.90;9.87
64698;BME280;51124;53.394;-6.294;2023-03-14T04:53:36;99437.74;;;13.58;9.92
64698;BME280;51124;53.394;-6.294;2023-03-14T04:56:04;99445.99;;;14.95;9.77
64698;BME280;51124;53.394;-6.294;2023-03-14T04:58:31;99454.54;;;14.44;9.73
64698;BME280;51124;53.394;-6.294;2023-03-14T05:01:03;99457.52;;;13.73;9.70
64698;BME280;51124;53.394;-6.294;2023-03-14T05:03:31;99451.48;;;15.39;9.92
64698;BME280;51124;53.394;-6.294;2023-03-14T05:05:58;99454.85;;;14.99;9.92
64698;BME280;51124;53.394;-6.294;2023-03-14T05:08:26;99459.46;;;12.97;9.90
64698;BME280;51124;53.394;-6.294;2023-03-14T05:10:54;99470.42;;;14.84;9.94
64698;BME280;51124;53.394;-6.294;2023-03-14T05:13:21;99489.37;;;14.48;9.87
64698;BME280;51124;53.394;-6.294;2023-03-14T05:15:49;99502.79;;;14.91;9.89
64698;BME280;51124;53.394;-6.294;2023-03-14T05:18:16;99508.03;;;12.98;10.09
64698;BME280;51124;53.394;-6.294;2023-03-14T05:20:44;99515.03;;;14.03;10.05
64698;BME280;51124;53.394;-6.294;2023-03-14T05:23:11;99518.17;;;14.94;9.77
64698;BME280;51124;53.394;-6.294;2023-03-14T05:25:39;99522.67;;;13.81;9.92
64698;BME280;51124;53.394;-6.294;2023-03-14T05:28:06;99520.78;;;13.77;9.76
64698;BME280;51124;53.394;-6.294;2023-03-14T05:30:33;99522.69;;;13.80;9.76
64698;BME280;51124;53.394;-6.294;2023-03-14T05:33:01;99526.24;;;16.24;9.76
64698;BME280;51124;53.394;-6.294;2023-03-14T05:35:28;99529.74;;;16.76;10.29
64698;BME280;51124;53.394;-6.294;2023-03-14T05:37:56;99534.09;;;15.73;10.74
64698;BME280;51124;53.394;-6.294;2023-03-14T05:40:23;99539.64;;;14.58;10.74
64698;BME280;51124;53.394;-6.294;2023-03-14T05:42:51;99542.87;;;17.92;10.71
64698;BME280;51124;53.394;-6.294;2023-03-14T05:45:19;99551.78;;;17.38;11.36
64698;BME280;51124;53.394;-6.294;2023-03-14T05:47:46;99550.97;;;17.11;11.74
64698;BME280;51124;53.394;-6.294;2023-03-14T05:50:14;99558.37;;;16.62;12.04
64698;BME280;51124;53.394;-6.294;2023-03-14T05:52:42;99570.36;;;16.80;12.04
64698;BME280;51124;53.394;-6.294;2023-03-14T05:55:10;99572.19;;;16.78;12.10
64698;BME280;51124;53.394;-6.294;2023-03-14T05:57:38;99579.36;;;16.31;12.37
64698;BME280;51124;53.394;-6.294;2023-03-14T06:00:07;99583.71;;;16.87;12.31
64698;BME280;51124;53.394;-6.294;2023-03-14T06:02:35;99587.05;;;16.73;12.37
64698;BME280;51124;53.394;-6.294;2023-03-14T06:05:03;99594.60;;;16.70;12.45
64698;BME280;51124;53.394;-6.294;2023-03-14T06:07:31;99604.29;;;16.91;12.41
64698;BME280;51124;53.394;-6.294;2023-03-14T06:09:59;99608.10;;;16.67;12.48
64698;BME280;51124;53.394;-6.294;2023-03-14T06:12:27;99614.70;;;16.11;12.60
64698;BME280;51124;53.394;-6.294;2023-03-14T06:14:55;99620.39;;;16.69;12.64
64698;BME280;51124;53.394;-6.294;2023-03-14T06:17:23;99623.88;;;16.15;12.64
64698;BME280;51124;53.394;-6.294;2023-03-14T06:19:51;99633.69;;;16.39;12.68
64698;BME280;51124;53.394;-6.294;2023-03-14T06:22:18;99641.50;;;15.94;12.62
64698;BME280;51124;53.394;-6.294;2023-03-14T06:24:46;99651.27;;;16.36;12.72
64698;BME280;51124;53.394;-6.294;2023-03-14T06:27:14;99655.59;;;15.71;12.86
64698;BME280;51124;53.394;-6.294;2023-03-14T06:29:42;99657.99;;;16.44;12.73
64698;BME280;51124;53.394;-6.294;2023-03-14T06:32:09;99662.28;;;16.08;12.79
64698;BME280;51124;53.394;-6.294;2023-03-14T06:34:37;99664.87;;;13.83;12.46
64698;BME280;51124;53.394;-6.294;2023-03-14T06:37:04;99668.48;;;13.87;12.05
64698;BME280;51124;53.394;-6.294;2023-03-14T06:39:32;99672.00;;;13.93;11.73
64698;BME280;51124;53.394;-6.294;2023-03-14T06:41:59;99678.56;;;14.24;11.41
64698;BME280;51124;53.394;-6.294;2023-03-14T06:44:26;99684.92;;;14.16;11.31
64698;BME280;51124;53.394;-6.294;2023-03-14T06:46:54;99684.65;;;14.26;11.15
64698;BME280;51124;53.394;-6.294;2023-03-14T06:49:21;99684.98;;;13.15;11.03
64698;BME280;51124;53.394;-6.294;2023-03-14T06:51:49;99690.95;;;13.92;10.84
64698;BME280;51124;53.394;-6.294;2023-03-14T06:54:16;99697.71;;;13.35;10.75
64698;BME280;51124;53.394;-6.294;2023-03-14T06:56:44;99700.68;;;13.53;10.65
64698;BME280;51124;53.394;-6.294;2023-03-14T06:59:11;99705.30;;;13.68;10.60
64698;BME280;51124;53.394;-6.294;2023-03-14T07:01:39;99712.74;;;13.61;10.50
64698;BME280;51124;53.394;-6.294;2023-03-14T07:04:06;99720.04;;;12.42;10.45
64698;BME280;51124;53.394;-6.294;2023-03-14T07:06:35;99726.83;;;13.75;10.37
64698;BME280;51124;53.394;-6.294;2023-03-14T07:09:03;99731.66;;;14.61;10.11
64698;BME280;51124;53.394;-6.294;2023-03-14T07:11:30;99744.40;;;13.50;10.19
64698;BME280;51124;53.394;-6.294;2023-03-14T07:13:58;99755.99;;;14.19;10.07
64698;BME280;51124;53.394;-6.294;2023-03-14T07:16:25;99764.92;;;14.26;9.89
64698;BME280;51124;53.394;-6.294;2023-03-14T07:18:52;99771.72;;;13.41;10.17
64698;BME280;51124;53.394;-6.294;2023-03-14T07:21:19;99769.60;;;13.09;10.10
64698;BME280;51124;53.394;-6.294;2023-03-14T07:23:47;99774.30;;;13.83;9.89
64698;BME280;51124;53.394;-6.294;2023-03-14T07:26:14;99782.15;;;13.42;10.07
64698;BME280;51124;53.394;-6.294;2023-03-14T07:28:41;99777.71;;;14.38;9.75
64698;BME280;51124;53.394;-6.294;2023-03-14T07:31:09;99789.02;;;13.80;9.81
64698;BME280;51124;53.394;-6.294;2023-03-14T07:33:36;99794.50;;;13.76;9.82
64698;BME280;51124;53.394;-6.294;2023-03-14T07:36:04;99801.08;;;13.50;9.89
64698;BME280;51124;53.394;-6.294;2023-03-14T07:38:32;99805.73;;;14.41;9.57
64698;BME280;51124;53.394;-6.294;2023-03-14T07:41:00;99810.71;;;15.19;9.52
64698;BME280;51124;53.394;-6.294;2023-03-14T07:43:28;99812.65;;;14.83;9.52
64698;BME280;51124;53.394;-6.294;2023-03-14T07:45:55;99819.07;;;15.55;9.41
64698;BME280;51124;53.394;-6.294;2023-03-14T07:48:23;99830.01;;;15.56;9.23
64698;BME280;51124;53.394;-6.294;2023-03-14T07:50:51;99836.51;;;14.71;9.19
64698;BME280;51124;53.394;-6.294;2023-03-14T07:53:19;99836.60;;;15.45;9.15
64698;BME280;51124;53.394;-6.294;2023-03-14T07:55:46;99839.42;;;15.46;9.03
64698;BME280;51124;53.394;-6.294;2023-03-14T07:58:14;99843.53;;;15.51;8.95
64698;BME280;51124;53.394;-6.294;2023-03-14T08:00:42;99845.84;;;16.02;8.71
64698;BME280;51124;53.394;-6.294;2023-03-14T08:03:09;99852.59;;;16.86;8.71
64698;BME280;51124;53.394;-6.294;2023-03-14T08:05:37;99861.46;;;16.84;8.56
64698;BME280;51124;53.394;-6.294;2023-03-14T08:08:05;99865.74;;;16.24;8.76
64698;BME280;51124;53.394;-6.294;2023-03-14T08:10:33;99871.46;;;18.27;8.59
64698;BME280;51124;53.394;-6.294;2023-03-14T08:13:03;99875.47;;;15.89;9.53
64698;BME280;51124;53.394;-6.294;2023-03-14T08:15:32;99882.00;;;15.93;9.53
64698;BME280;51124;53.394;-6.294;2023-03-14T08:18:00;99883.41;;;17.14;9.52
64698;BME280;51124;53.394;-6.294;2023-03-14T08:20:28;99880.16;;;16.55;9.32
64698;BME280;51124;53.394;-6.294;2023-03-14T08:22:57;99884.64;;;17.09;8.91
64698;BME280;51124;53.394;-6.294;2023-03-14T08:25:25;99885.88;;;17.04;8.95
64698;BME280;51124;53.394;-6.294;2023-03-14T08:27:53;99885.91;;;17.08;8.75
64698;BME280;51124;53.394;-6.294;2023-03-14T08:30:22;99891.26;;;16.26;8.84
64698;BME280;51124;53.394;-6.294;2023-03-14T08:32:49;99896.45;;;16.10;8.72
64698;BME280;51124;53.394;-6.294;2023-03-14T08:35:17;99899.71;;;16.49;8.78
64698;BME280;51124;53.394;-6.294;2023-03-14T08:37:45;99905.03;;;17.15;8.83
64698;BME280;51124;53.394;-6.294;2023-03-14T08:40:13;99912.50;;;17.77;8.76
64698;BME280;51124;53.394;-6.294;2023-03-14T08:42:41;99915.21;;;21.57;9.06
64698;BME280;51124;53.394;-6.294;2023-03-14T08:45:11;99918.99;;;20.47;9.41
64698;BME280;51124;53.394;-6.294;2023-03-14T08:47:39;99919.23;;;20.30;9.83
64698;BME280;51124;53.394;-6.294;2023-03-14T08:50:08;99926.46;;;18.69;9.79
64698;BME280;51124;53.394;-6.294;2023-03-14T08:52:36;99930.13;;;18.04;9.81
64698;BME280;51124;53.394;-6.294;2023-03-14T08:55:05;99929.81;;;21.04;9.98
64698;BME280;51124;53.394;-6.294;2023-03-14T08:57:33;99937.63;;;20.88;10.31
64698;BME280;51124;53.394;-6.294;2023-03-14T09:00:01;99936.68;;;21.23;10.60
64698;BME280;51124;53.394;-6.294;2023-03-14T09:02:28;99941.34;;;20.54;10.60
64698;BME280;51124;53.394;-6.294;2023-03-14T09:04:56;99946.58;;;20.57;10.80
64698;BME280;51124;53.394;-6.294;2023-03-14T09:07:24;99950.75;;;20.91;10.83
64698;BME280;51124;53.394;-6.294;2023-03-14T09:09:52;99956.93;;;20.90;10.90
64698;BME280;51124;53.394;-6.294;2023-03-14T09:12:20;99952.95;;;20.81;10.95
64698;BME280;51124;53.394;-6.294;2023-03-14T09:14:47;99950.16;;;20.97;10.80
64698;BME280;51124;53.394;-6.294;2023-03-14T09:17:15;99951.16;;;21.04;11.05
64698;BME280;51124;53.394;-6.294;2023-03-14T09:19:43;99947.75;;;20.38;11.18
64698;BME280;51124;53.394;-6.294;2023-03-14T09:22:11;99943.68;;;21.28;10.45
64698;BME280;51124;53.394;-6.294;2023-03-14T09:24:42;99946.31;;;20.93;10.38
64698;BME280;51124;53.394;-6.294;2023-03-14T09:27:10;99951.72;;;21.09;10.21
64698;BME280;51124;53.394;-6.294;2023-03-14T09:29:40;99951.46;;;20.59;10.03
64698;BME280;51124;53.394;-6.294;2023-03-14T09:32:08;99955.81;;;19.26;10.39
64698;BME280;51124;53.394;-6.294;2023-03-14T09:34:35;99948.96;;;20.54;10.22
64698;BME280;51124;53.394;-6.294;2023-03-14T09:37:03;99952.96;;;20.78;10.35
64698;BME280;51124;53.394;-6.294;2023-03-14T09:39:31;99960.17;;;21.44;10.15
64698;BME280;51124;53.394;-6.294;2023-03-14T09:42:04;99960.46;;;20.95;10.51
64698;BME280;51124;53.394;-6.294;2023-03-14T09:44:35;99969.33;;;19.59;10.58
64698;BME280;51124;53.394;-6.294;2023-03-14T09:47:07;99972.02;;;19.11;10.38
64698;BME280;51124;53.394;-6.294;2023-03-14T09:49:39;99974.06;;;18.07;10.07
64698;BME280;51124;53.394;-6.294;2023-03-14T09:52:14;99981.20;;;19.57;9.75
64698;BME280;51124;53.394;-6.294;2023-03-14T09:54:35;99985.54;;;19.52;9.60
64698;BME280;51124;53.394;-6.294;2023-03-14T09:57:06;99990.41;;;19.26;9.73
64698;BME280;51124;53.394;-6.294;2023-03-14T09:59:34;99992.19;;;18.54;9.51
64698;BME280;51124;53.394;-6.294;2023-03-14T10:02:11;99994.87;;;18.86;9.34
64698;BME280;51124;53.394;-6.294;2023-03-14T10:04:30;100000.15;;;18.51;9.32
64698;BME280;51124;53.394;-6.294;2023-03-14T10:06:59;99998.67;;;19.34;8.80
64698;BME280;51124;53.394;-6.294;2023-03-14T10:09:26;100002.25;;;18.62;8.93
64698;BME280;51124;53.394;-6.294;2023-03-14T10:11:56;100008.76;;;17.82;9.16
64698;BME280;51124;53.394;-6.294;2023-03-14T10:14:33;100012.75;;;19.00;8.99
64698;BME280;51124;53.394;-6.294;2023-03-14T10:16:51;100018.06;;;18.27;8.87
64698;BME280;51124;53.394;-6.294;2023-03-14T10:19:19;100022.59;;;19.03;8.76
64698;BME280;51124;53.394;-6.294;2023-03-14T10:21:52;100022.32;;;20.20;8.72
64698;BME280;51124;53.394;-6.294;2023-03-14T10:24:27;100022.78;;;19.10;8.83
64698;BME280;51124;53.394;-6.294;2023-03-14T10:26:58;100024.21;;;18.03;8.80
64698;BME280;51124;53.394;-6.294;2023-03-14T10:29:26;100022.46;;;18.67;8.79
64698;BME280;51124;53.394;-6.294;2023-03-14T10:31:58;100024.82;;;18.80;8.60
64698;BME280;51124;53.394;-6.294;2023-03-14T10:34:27;100027.73;;;19.03;8.59
64698;BME280;51124;53.394;-6.294;2023-03-14T10:36:57;100030.56;;;18.80;8.51
64698;BME280;51124;53.394;-6.294;2023-03-14T10:39:29;100025.93;;;19.04;8.58
64698;BME280;51124;53.394;-6.294;2023-03-14T10:42:05;100026.41;;;19.17;8.49
64698;BME280;51124;53.394;-6.294;2023-03-14T10:44:28;100020.72;;;19.26;8.63
64698;BME280;51124;53.394;-6.294;2023-03-14T10:46:59;100031.60;;;18.74;8.35
64698;BME280;51124;53.394;-6.294;2023-03-14T10:49:29;100037.75;;;19.05;8.64
64698;BME280;51124;53.394;-6.294;2023-03-14T10:52:00;100037.86;;;18.72;8.73
64698;BME280;51124;53.394;-6.294;2023-03-14T10:54:31;100036.82;;;19.22;8.65
64698;BME280;51124;53.394;-6.294;2023-03-14T10:57:00;100044.91;;;18.23;8.68
64698;BME280;51124;53.394;-6.294;2023-03-14T10:59:38;100045.10;;;19.36;8.75
64698;BME280;51124;53.394;-6.294;2023-03-14T11:01:58;100043.45;;;19.62;8.76
64698;BME280;51124;53.394;-6.294;2023-03-14T11:04:44;100041.79;;;19.38;8.53
64698;BME280;51124;53.394;-6.294;2023-03-14T11:06:59;100047.68;;;19.14;8.64
64698;BME280;51124;53.394;-6.294;2023-03-14T11:09:25;100049.19;;;19.21;8.42
64698;BME280;51124;53.394;-6.294;2023-03-14T11:11:47;100047.03;;;19.53;8.71
64698;BME280;51124;53.394;-6.294;2023-03-14T11:14:22;100041.58;;;19.00;8.67
64698;BME280;51124;53.394;-6.294;2023-03-14T11:16:50;100045.71;;;18.85;8.41
64698;BME280;51124;53.394;-6.294;2023-03-14T11:19:17;100052.14;;;19.03;8.43
64698;BME280;51124;53.394;-6.294;2023-03-14T11:21:41;100043.18;;;19.44;8.41
64698;BME280;51124;53.394;-6.294;2023-03-14T11:24:23;100042.33;;;19.42;8.56
64698;BME280;51124;53.394;-6.294;2023-03-14T11:26:47;100044.05;;;19.18;8.52
64698;BME280;51124;53.394;-6.294;2023-03-14T11:29:23;100043.72;;;19.13;8.66
64698;BME280;51124;53.394;-6.294;2023-03-14T11:31:46;100045.12;;;19.05;8.80
64698;BME280;51124;53.394;-6.294;2023-03-14T11:34:20;100046.38;;;18.78;8.75
64698;BME280;51124;53.394;-6.294;2023-03-14T11:36:41;100042.17;;;19.54;8.75
64698;BME280;51124;53.394;-6.294;2023-03-14T11:39:15;100032.49;;;19.63;8.71
64698;BME280;51124;53.394;-6.294;2023-03-14T11:41:46;100044.78;;;19.81;8.69
64698;BME280;51124;53.394;-6.294;2023-03-14T11:44:19;100055.47;;;19.86;8.82
64698;BME280;51124;53.394;-6.294;2023-03-14T11:46:49;100055.05;;;19.53;8.65
64698;BME280;51124;53.394;-6.294;2023-03-14T11:49:26;100041.80;;;19.02;8.78
64698;BME280;51124;53.394;-6.294;2023-03-14T11:51:50;100039.07;;;18.31;8.66
64698;BME280;51124;53.394;-6.294;2023-03-14T11:54:26;100036.13;;;18.77;8.49
64698;BME280;51124;53.394;-6.294;2023-03-14T11:56:52;100031.84;;;18.96;8.34
64698;BME280;51124;53.394;-6.294;2023-03-14T11:59:25;100036.42;;;18.70;8.40
64698;BME280;51124;53.394;-6.294;2023-03-14T12:01:57;100038.74;;;21.96;9.01
64698;BME280;51124;53.394;-6.294;2023-03-14T12:04:40;100041.17;;;21.26;9.50
64698;BME280;51124;53.394;-6.294;2023-03-14T12:07:05;100047.09;;;21.05;9.97
64698;BME280;51124;53.394;-6.294;2023-03-14T12:09:26;100042.60;;;21.50;10.15
64698;BME280;51124;53.394;-6.294;2023-03-14T12:11:56;100054.02;;;18.89;9.96
64698;BME280;51124;53.394;-6.294;2023-03-14T12:14:29;100053.35;;;22.20;9.79
64698;BME280;51124;53.394;-6.294;2023-03-14T12:17:03;100045.97;;;22.15;10.31
64698;BME280;51124;53.394;-6.294;2023-03-14T12:19:34;100053.72;;;21.48;10.57
64698;BME280;51124;53.394;-6.294;2023-03-14T12:22:12;100057.72;;;21.47;10.75
64698;BME280;51124;53.394;-6.294;2023-03-14T12:24:33;100060.56;;;21.59;10.68
64698;BME280;51124;53.394;-6.294;2023-03-14T12:27:03;100063.60;;;21.18;10.73
64698;BME280;51124;53.394;-6.294;2023-03-14T12:29:31;100071.26;;;21.05;10.87
64698;BME280;51124;53.394;-6.294;2023-03-14T12:32:20;100072.14;;;21.35;10.96
64698;BME280;51124;53.394;-6.294;2023-03-14T12:34:30;100075.81;;;21.30;11.16
64698;BME280;51124;53.394;-6.294;2023-03-14T12:37:06;100078.05;;;21.24;10.86
64698;BME280;51124;53.394;-6.294;2023-03-14T12:39:37;100081.86;;;20.69;10.77
64698;BME280;51124;53.394;-6.294;2023-03-14T12:42:04;100081.55;;;21.56;10.96
64698;BME280;51124;53.394;-6.294;2023-03-14T12:44:42;100081.76;;;21.96;10.47
64698;BME280;51124;53.394;-6.294;2023-03-14T12:47:02;100083.85;;;22.58;10.11
64698;BME280;51124;53.394;-6.294;2023-03-14T12:49:35;100083.16;;;22.79;10.13
64698;BME280;51124;53.394;-6.294;2023-03-14T12:52:10;100079.44;;;22.23;9.97
64698;BME280;51124;53.394;-6.294;2023-03-14T12:54:35;100083.41;;;22.72;10.03
64698;BME280;51124;53.394;-6.294;2023-03-14T12:57:14;100086.93;;;22.26;10.07
64698;BME280;51124;53.394;-6.294;2023-03-14T12:59:32;100093.00;;;21.98;10.21